Helena, Mississippi
Current Conditions -  °F | °C
As of 1:53 AM on Monday 22 Dec 2014 (Local Time) from KPQL Reporting Station
Broken Clouds Broken Clouds  
Wind Chill: 57°   Ceiling: 700
Heat Index: 57°   Visibility: 9mi
Dew Point: 55°   Wind: 5mph
Humidity: 93%   Direction: 60°ENE
Pressure: 29.93"   Gusts: NA
Location:  30.3649°N, 88.5432°W
Report Text: KPQL 220753Z AUTO 06004KT 9SM BKN007 BKN016 BKN030 14/13 A2993 RMK AO2 CIG 006V011 SLP135 T01390128 TSNO
Loading
Personal Weather Stations






























Interactive Weather Map New forecast layout! Learn more

10-Day Weather Forecast

Advertisements
Track Severe Weather on mobile